sensor_id;sensor_type;location;lat;lon;timestamp;P1;durP1;ratioP1;P2;durP2;ratioP2
70337;SDS011;57757;53.198;19.646;2023-06-22T00:02:18;15.20;;;9.70;;
70337;SDS011;57757;53.198;19.646;2023-06-22T00:04:44;13.90;;;9.30;;
70337;SDS011;57757;53.198;19.646;2023-06-22T00:07:11;16.50;;;9.00;;
70337;SDS011;57757;53.198;19.646;2023-06-22T00:09:37;15.10;;;10.40;;
70337;SDS011;57757;53.198;19.646;2023-06-22T00:12:03;23.10;;;9.90;;
70337;SDS011;57757;53.198;19.646;2023-06-22T00:14:29;15.30;;;9.70;;
70337;SDS011;57757;53.198;19.646;2023-06-22T00:16:55;15.00;;;10.10;;
70337;SDS011;57757;53.198;19.646;2023-06-22T00:19:24;18.20;;;10.50;;
70337;SDS011;57757;53.198;19.646;2023-06-22T00:21:51;16.30;;;10.00;;
70337;SDS011;57757;53.198;19.646;2023-06-22T00:24:20;15.50;;;10.40;;
70337;SDS011;57757;53.198;19.646;2023-06-22T00:26:50;17.30;;;10.90;;
70337;SDS011;57757;53.198;19.646;2023-06-22T00:29:16;15.30;;;10.20;;
70337;SDS011;57757;53.198;19.646;2023-06-22T00:31:42;14.90;;;9.60;;
70337;SDS011;57757;53.198;19.646;2023-06-22T00:34:08;16.50;;;10.60;;
70337;SDS011;57757;53.198;19.646;2023-06-22T00:36:35;15.70;;;9.50;;
70337;SDS011;57757;53.198;19.646;2023-06-22T00:39:02;16.20;;;10.20;;
70337;SDS011;57757;53.198;19.646;2023-06-22T00:41:28;16.50;;;10.20;;
70337;SDS011;57757;53.198;19.646;2023-06-22T00:43:54;14.90;;;9.80;;
70337;SDS011;57757;53.198;19.646;2023-06-22T00:46:21;17.50;;;10.80;;
70337;SDS011;57757;53.198;19.646;2023-06-22T00:48:48;16.70;;;10.40;;
70337;SDS011;57757;53.198;19.646;2023-06-22T00:51:16;16.70;;;10.70;;
70337;SDS011;57757;53.198;19.646;2023-06-22T00:53:42;17.30;;;11.40;;
70337;SDS011;57757;53.198;19.646;2023-06-22T00:56:08;17.60;;;11.00;;
70337;SDS011;57757;53.198;19.646;2023-06-22T00:58:38;19.20;;;10.70;;
70337;SDS011;57757;53.198;19.646;2023-06-22T01:01:07;17.10;;;10.80;;
70337;SDS011;57757;53.198;19.646;2023-06-22T01:03:34;17.20;;;9.40;;
70337;SDS011;57757;53.198;19.646;2023-06-22T01:06:02;14.80;;;9.60;;
70337;SDS011;57757;53.198;19.646;2023-06-22T01:08:42;16.90;;;10.20;;
70337;SDS011;57757;53.198;19.646;2023-06-22T01:11:21;14.60;;;9.00;;
70337;SDS011;57757;53.198;19.646;2023-06-22T01:14:15;16.30;;;9.70;;
70337;SDS011;57757;53.198;19.646;2023-06-22T01:16:49;13.60;;;8.80;;
70337;SDS011;57757;53.198;19.646;2023-06-22T01:19:29;14.60;;;9.40;;
70337;SDS011;57757;53.198;19.646;2023-06-22T01:21:58;14.00;;;9.00;;
70337;SDS011;57757;53.198;19.646;2023-06-22T01:25:20;15.70;;;10.20;;
70337;SDS011;57757;53.198;19.646;2023-06-22T01:30:28;17.10;;;10.00;;
70337;SDS011;57757;53.198;19.646;2023-06-22T01:32:56;17.20;;;10.30;;
70337;SDS011;57757;53.198;19.646;2023-06-22T01:35:23;15.40;;;10.50;;
70337;SDS011;57757;53.198;19.646;2023-06-22T01:37:50;16.30;;;9.50;;
70337;SDS011;57757;53.198;19.646;2023-06-22T01:40:16;15.70;;;10.20;;
70337;SDS011;57757;53.198;19.646;2023-06-22T01:42:45;16.60;;;10.30;;
70337;SDS011;57757;53.198;19.646;2023-06-22T01:45:12;16.70;;;10.50;;
70337;SDS011;57757;53.198;19.646;2023-06-22T01:47:39;16.30;;;9.40;;
70337;SDS011;57757;53.198;19.646;2023-06-22T01:50:06;17.00;;;9.60;;
70337;SDS011;57757;53.198;19.646;2023-06-22T01:52:32;15.40;;;9.60;;
70337;SDS011;57757;53.198;19.646;2023-06-22T01:55:00;16.80;;;10.50;;
70337;SDS011;57757;53.198;19.646;2023-06-22T01:57:26;17.40;;;10.40;;
70337;SDS011;57757;53.198;19.646;2023-06-22T02:02:27;16.10;;;10.00;;
70337;SDS011;57757;53.198;19.646;2023-06-22T02:05:07;16.60;;;9.80;;
70337;SDS011;57757;53.198;19.646;2023-06-22T02:07:39;18.80;;;10.50;;
70337;SDS011;57757;53.198;19.646;2023-06-22T02:10:10;18.30;;;10.80;;
70337;SDS011;57757;53.198;19.646;2023-06-22T02:12:42;17.50;;;10.10;;
70337;SDS011;57757;53.198;19.646;2023-06-22T02:15:10;16.80;;;10.40;;
70337;SDS011;57757;53.198;19.646;2023-06-22T02:17:38;19.00;;;10.90;;
70337;SDS011;57757;53.198;19.646;2023-06-22T02:20:04;16.20;;;10.00;;
70337;SDS011;57757;53.198;19.646;2023-06-22T02:22:33;16.80;;;9.50;;
70337;SDS011;57757;53.198;19.646;2023-06-22T02:24:59;16.60;;;10.10;;
70337;SDS011;57757;53.198;19.646;2023-06-22T02:27:26;14.90;;;9.70;;
70337;SDS011;57757;53.198;19.646;2023-06-22T02:29:52;15.30;;;9.70;;
70337;SDS011;57757;53.198;19.646;2023-06-22T02:32:18;17.70;;;10.20;;
70337;SDS011;57757;53.198;19.646;2023-06-22T02:34:44;19.30;;;11.30;;
70337;SDS011;57757;53.198;19.646;2023-06-22T02:37:13;17.90;;;11.20;;
70337;SDS011;57757;53.198;19.646;2023-06-22T02:39:42;17.30;;;11.40;;
70337;SDS011;57757;53.198;19.646;2023-06-22T02:42:09;18.10;;;12.40;;
70337;SDS011;57757;53.198;19.646;2023-06-22T02:44:38;19.20;;;11.10;;
70337;SDS011;57757;53.198;19.646;2023-06-22T02:47:04;17.80;;;11.00;;
70337;SDS011;57757;53.198;19.646;2023-06-22T02:49:30;19.00;;;11.40;;
70337;SDS011;57757;53.198;19.646;2023-06-22T02:51:57;17.30;;;11.10;;
70337;SDS011;57757;53.198;19.646;2023-06-22T02:54:23;17.40;;;10.30;;
70337;SDS011;57757;53.198;19.646;2023-06-22T02:56:49;19.30;;;10.90;;
70337;SDS011;57757;53.198;19.646;2023-06-22T02:59:16;16.70;;;10.60;;
70337;SDS011;57757;53.198;19.646;2023-06-22T03:01:43;19.10;;;10.90;;
70337;SDS011;57757;53.198;19.646;2023-06-22T03:04:09;18.80;;;11.00;;
70337;SDS011;57757;53.198;19.646;2023-06-22T03:06:35;18.30;;;11.80;;
70337;SDS011;57757;53.198;19.646;2023-06-22T03:09:02;20.70;;;11.50;;
70337;SDS011;57757;53.198;19.646;2023-06-22T03:11:30;18.90;;;11.20;;
70337;SDS011;57757;53.198;19.646;2023-06-22T03:13:57;18.20;;;10.90;;
70337;SDS011;57757;53.198;19.646;2023-06-22T03:16:24;18.50;;;11.40;;
70337;SDS011;57757;53.198;19.646;2023-06-22T03:18:50;19.10;;;11.40;;
70337;SDS011;57757;53.198;19.646;2023-06-22T03:21:16;18.70;;;11.60;;
70337;SDS011;57757;53.198;19.646;2023-06-22T03:23:42;19.40;;;11.00;;
70337;SDS011;57757;53.198;19.646;2023-06-22T03:26:09;21.70;;;13.10;;
70337;SDS011;57757;53.198;19.646;2023-06-22T03:28:37;18.80;;;11.50;;
70337;SDS011;57757;53.198;19.646;2023-06-22T03:31:03;18.70;;;12.40;;
70337;SDS011;57757;53.198;19.646;2023-06-22T03:33:32;19.50;;;13.00;;
70337;SDS011;57757;53.198;19.646;2023-06-22T03:35:58;19.40;;;12.40;;
70337;SDS011;57757;53.198;19.646;2023-06-22T03:38:24;15.80;;;10.40;;
70337;SDS011;57757;53.198;19.646;2023-06-22T03:40:50;19.00;;;11.50;;
70337;SDS011;57757;53.198;19.646;2023-06-22T03:43:16;18.60;;;11.70;;
70337;SDS011;57757;53.198;19.646;2023-06-22T03:45:42;17.80;;;11.30;;
70337;SDS011;57757;53.198;19.646;2023-06-22T03:48:08;17.50;;;11.40;;
70337;SDS011;57757;53.198;19.646;2023-06-22T03:50:34;16.30;;;10.10;;
70337;SDS011;57757;53.198;19.646;2023-06-22T03:53:00;18.90;;;10.90;;
70337;SDS011;57757;53.198;19.646;2023-06-22T03:55:26;16.70;;;10.90;;
70337;SDS011;57757;53.198;19.646;2023-06-22T03:57:52;14.90;;;9.00;;
70337;SDS011;57757;53.198;19.646;2023-06-22T04:00:20;14.70;;;9.30;;
70337;SDS011;57757;53.198;19.646;2023-06-22T04:02:46;16.00;;;9.90;;
70337;SDS011;57757;53.198;19.646;2023-06-22T04:05:12;18.70;;;10.20;;
70337;SDS011;57757;53.198;19.646;2023-06-22T04:07:38;16.80;;;10.00;;
70337;SDS011;57757;53.198;19.646;2023-06-22T04:10:05;19.30;;;10.40;;
70337;SDS011;57757;53.198;19.646;2023-06-22T04:12:31;15.10;;;9.20;;
70337;SDS011;57757;53.198;19.646;2023-06-22T04:14:57;16.50;;;9.50;;
70337;SDS011;57757;53.198;19.646;2023-06-22T04:17:23;15.90;;;9.70;;
70337;SDS011;57757;53.198;19.646;2023-06-22T04:19:51;15.80;;;9.20;;
70337;SDS011;57757;53.198;19.646;2023-06-22T04:22:17;14.60;;;8.80;;
70337;SDS011;57757;53.198;19.646;2023-06-22T04:24:43;16.10;;;8.20;;
70337;SDS011;57757;53.198;19.646;2023-06-22T04:27:10;13.70;;;7.90;;
70337;SDS011;57757;53.198;19.646;2023-06-22T04:29:37;14.50;;;8.50;;
70337;SDS011;57757;53.198;19.646;2023-06-22T04:32:04;15.70;;;8.20;;
70337;SDS011;57757;53.198;19.646;2023-06-22T04:34:31;14.40;;;8.70;;
70337;SDS011;57757;53.198;19.646;2023-06-22T04:36:57;15.10;;;7.70;;
70337;SDS011;57757;53.198;19.646;2023-06-22T04:39:23;14.60;;;7.70;;
70337;SDS011;57757;53.198;19.646;2023-06-22T04:41:50;14.10;;;8.10;;
70337;SDS011;57757;53.198;19.646;2023-06-22T04:44:17;16.90;;;7.90;;
70337;SDS011;57757;53.198;19.646;2023-06-22T04:46:50;20.00;;;8.90;;
70337;SDS011;57757;53.198;19.646;2023-06-22T04:49:26;14.60;;;7.90;;
70337;SDS011;57757;53.198;19.646;2023-06-22T04:51:59;13.30;;;7.60;;
70337;SDS011;57757;53.198;19.646;2023-06-22T04:54:26;12.20;;;6.80;;
70337;SDS011;57757;53.198;19.646;2023-06-22T04:56:52;14.50;;;7.80;;
70337;SDS011;57757;53.198;19.646;2023-06-22T04:59:22;17.50;;;8.40;;
70337;SDS011;57757;53.198;19.646;2023-06-22T05:01:57;14.90;;;7.30;;
70337;SDS011;57757;53.198;19.646;2023-06-22T05:04:25;15.50;;;7.30;;
70337;SDS011;57757;53.198;19.646;2023-06-22T05:06:52;14.90;;;8.60;;
70337;SDS011;57757;53.198;19.646;2023-06-22T05:09:18;22.50;;;11.70;;
70337;SDS011;57757;53.198;19.646;2023-06-22T05:11:45;12.50;;;8.20;;
70337;SDS011;57757;53.198;19.646;2023-06-22T05:14:11;17.90;;;10.20;;
70337;SDS011;57757;53.198;19.646;2023-06-22T05:16:37;18.10;;;12.10;;
70337;SDS011;57757;53.198;19.646;2023-06-22T05:19:05;16.50;;;9.70;;
70337;SDS011;57757;53.198;19.646;2023-06-22T05:21:31;14.20;;;7.90;;
70337;SDS011;57757;53.198;19.646;2023-06-22T05:23:57;15.70;;;7.50;;
70337;SDS011;57757;53.198;19.646;2023-06-22T05:26:26;17.00;;;8.30;;
70337;SDS011;57757;53.198;19.646;2023-06-22T05:28:52;13.40;;;7.50;;
70337;SDS011;57757;53.198;19.646;2023-06-22T05:31:19;14.50;;;7.60;;
70337;SDS011;57757;53.198;19.646;2023-06-22T05:33:46;19.00;;;8.50;;
70337;SDS011;57757;53.198;19.646;2023-06-22T05:36:13;14.50;;;8.00;;
70337;SDS011;57757;53.198;19.646;2023-06-22T05:38:40;15.00;;;8.20;;
70337;SDS011;57757;53.198;19.646;2023-06-22T05:41:07;16.30;;;8.10;;
70337;SDS011;57757;53.198;19.646;2023-06-22T05:43:34;14.60;;;8.30;;
70337;SDS011;57757;53.198;19.646;2023-06-22T05:46:01;14.50;;;8.20;;
70337;SDS011;57757;53.198;19.646;2023-06-22T05:48:27;13.30;;;8.00;;
70337;SDS011;57757;53.198;19.646;2023-06-22T05:50:53;16.20;;;8.40;;
70337;SDS011;57757;53.198;19.646;2023-06-22T05:53:20;14.00;;;8.30;;
70337;SDS011;57757;53.198;19.646;2023-06-22T05:55:46;17.30;;;8.20;;
70337;SDS011;57757;53.198;19.646;2023-06-22T05:58:12;14.60;;;9.00;;
70337;SDS011;57757;53.198;19.646;2023-06-22T06:00:41;16.40;;;8.20;;
70337;SDS011;57757;53.198;19.646;2023-06-22T06:03:09;14.40;;;8.10;;
70337;SDS011;57757;53.198;19.646;2023-06-22T06:05:37;17.40;;;10.20;;
70337;SDS011;57757;53.198;19.646;2023-06-22T06:08:04;19.20;;;10.30;;
70337;SDS011;57757;53.198;19.646;2023-06-22T06:10:32;16.60;;;8.80;;
70337;SDS011;57757;53.198;19.646;2023-06-22T06:12:59;15.40;;;9.00;;
70337;SDS011;57757;53.198;19.646;2023-06-22T06:15:30;18.90;;;9.10;;
70337;SDS011;57757;53.198;19.646;2023-06-22T06:17:57;14.30;;;8.80;;
70337;SDS011;57757;53.198;19.646;2023-06-22T06:20:25;22.10;;;12.80;;
70337;SDS011;57757;53.198;19.646;2023-06-22T06:22:54;20.80;;;13.40;;
70337;SDS011;57757;53.198;19.646;2023-06-22T06:25:20;18.00;;;12.20;;
70337;SDS011;57757;53.198;19.646;2023-06-22T06:27:47;18.50;;;9.90;;
70337;SDS011;57757;53.198;19.646;2023-06-22T06:30:16;15.10;;;9.60;;
70337;SDS011;57757;53.198;19.646;2023-06-22T06:32:44;16.10;;;9.30;;
70337;SDS011;57757;53.198;19.646;2023-06-22T06:35:11;17.10;;;10.30;;
70337;SDS011;57757;53.198;19.646;2023-06-22T06:37:40;15.10;;;9.60;;
70337;SDS011;57757;53.198;19.646;2023-06-22T06:40:07;20.70;;;9.70;;
70337;SDS011;57757;53.198;19.646;2023-06-22T06:42:40;15.80;;;10.30;;
70337;SDS011;57757;53.198;19.646;2023-06-22T06:45:08;20.20;;;10.10;;
70337;SDS011;57757;53.198;19.646;2023-06-22T06:47:34;21.20;;;12.70;;
70337;SDS011;57757;53.198;19.646;2023-06-22T06:50:00;36.50;;;12.60;;
70337;SDS011;57757;53.198;19.646;2023-06-22T06:52:26;16.90;;;9.60;;
70337;SDS011;57757;53.198;19.646;2023-06-22T06:54:53;20.40;;;11.10;;
70337;SDS011;57757;53.198;19.646;2023-06-22T06:57:19;18.80;;;9.70;;
70337;SDS011;57757;53.198;19.646;2023-06-22T06:59:46;16.70;;;9.80;;
70337;SDS011;57757;53.198;19.646;2023-06-22T07:02:12;15.90;;;9.50;;
70337;SDS011;57757;53.198;19.646;2023-06-22T07:04:38;15.50;;;9.30;;
70337;SDS011;57757;53.198;19.646;2023-06-22T07:07:04;15.60;;;8.80;;
70337;SDS011;57757;53.198;19.646;2023-06-22T07:09:31;15.20;;;8.50;;
70337;SDS011;57757;53.198;19.646;2023-06-22T07:11:57;15.50;;;9.90;;
70337;SDS011;57757;53.198;19.646;2023-06-22T07:14:23;18.90;;;9.40;;
70337;SDS011;57757;53.198;19.646;2023-06-22T07:16:49;16.80;;;9.60;;
70337;SDS011;57757;53.198;19.646;2023-06-22T07:19:15;14.90;;;8.90;;
70337;SDS011;57757;53.198;19.646;2023-06-22T07:21:41;15.40;;;8.90;;
70337;SDS011;57757;53.198;19.646;2023-06-22T07:24:07;14.70;;;8.70;;
70337;SDS011;57757;53.198;19.646;2023-06-22T07:26:33;14.80;;;8.80;;
70337;SDS011;57757;53.198;19.646;2023-06-22T07:29:00;35.60;;;19.50;;
70337;SDS011;57757;53.198;19.646;2023-06-22T07:31:26;16.70;;;10.30;;
70337;SDS011;57757;53.198;19.646;2023-06-22T07:33:52;24.10;;;15.00;;
70337;SDS011;57757;53.198;19.646;2023-06-22T07:36:18;15.60;;;9.80;;
70337;SDS011;57757;53.198;19.646;2023-06-22T07:38:44;20.70;;;15.20;;
70337;SDS011;57757;53.198;19.646;2023-06-22T07:41:10;16.40;;;8.80;;
70337;SDS011;57757;53.198;19.646;2023-06-22T07:43:36;14.10;;;8.60;;
70337;SDS011;57757;53.198;19.646;2023-06-22T07:46:03;14.20;;;8.20;;
70337;SDS011;57757;53.198;19.646;2023-06-22T07:48:29;16.70;;;10.10;;
70337;SDS011;57757;53.198;19.646;2023-06-22T07:50:55;24.30;;;9.50;;
70337;SDS011;57757;53.198;19.646;2023-06-22T07:53:21;15.80;;;8.50;;
70337;SDS011;57757;53.198;19.646;2023-06-22T07:55:49;16.40;;;8.60;;
70337;SDS011;57757;53.198;19.646;2023-06-22T07:58:15;15.50;;;8.80;;
70337;SDS011;57757;53.198;19.646;2023-06-22T08:00:44;14.80;;;7.60;;
70337;SDS011;57757;53.198;19.646;2023-06-22T08:03:10;14.10;;;8.30;;
70337;SDS011;57757;53.198;19.646;2023-06-22T08:05:36;12.70;;;8.00;;
70337;SDS011;57757;53.198;19.646;2023-06-22T08:08:03;14.30;;;8.30;;
70337;SDS011;57757;53.198;19.646;2023-06-22T08:10:29;14.20;;;8.80;;
70337;SDS011;57757;53.198;19.646;2023-06-22T08:12:55;13.40;;;8.50;;
70337;SDS011;57757;53.198;19.646;2023-06-22T08:15:21;14.60;;;9.10;;
70337;SDS011;57757;53.198;19.646;2023-06-22T08:17:47;15.70;;;8.60;;
70337;SDS011;57757;53.198;19.646;2023-06-22T08:20:13;16.30;;;8.60;;
70337;SDS011;57757;53.198;19.646;2023-06-22T08:22:40;13.90;;;7.90;;
70337;SDS011;57757;53.198;19.646;2023-06-22T08:25:07;26.90;;;8.90;;
70337;SDS011;57757;53.198;19.646;2023-06-22T08:27:34;13.20;;;7.80;;
70337;SDS011;57757;53.198;19.646;2023-06-22T08:30:01;16.30;;;8.20;;
70337;SDS011;57757;53.198;19.646;2023-06-22T08:32:28;14.30;;;7.80;;
70337;SDS011;57757;53.198;19.646;2023-06-22T08:34:55;14.70;;;8.80;;
70337;SDS011;57757;53.198;19.646;2023-06-22T08:37:22;16.80;;;8.50;;
70337;SDS011;57757;53.198;19.646;2023-06-22T08:39:58;15.00;;;8.70;;
70337;SDS011;57757;53.198;19.646;2023-06-22T08:42:24;13.70;;;7.90;;
70337;SDS011;57757;53.198;19.646;2023-06-22T08:44:51;15.50;;;7.80;;
70337;SDS011;57757;53.198;19.646;2023-06-22T08:47:17;14.70;;;8.90;;
70337;SDS011;57757;53.198;19.646;2023-06-22T08:49:43;15.60;;;8.10;;
70337;SDS011;57757;53.198;19.646;2023-06-22T08:52:09;15.10;;;7.80;;
70337;SDS011;57757;53.198;19.646;2023-06-22T08:54:35;12.60;;;7.30;;
70337;SDS011;57757;53.198;19.646;2023-06-22T08:57:02;14.00;;;8.00;;
70337;SDS011;57757;53.198;19.646;2023-06-22T08:59:28;11.30;;;6.90;;
70337;SDS011;57757;53.198;19.646;2023-06-22T09:01:54;12.30;;;7.00;;
70337;SDS011;57757;53.198;19.646;2023-06-22T09:04:24;15.30;;;7.40;;
70337;SDS011;57757;53.198;19.646;2023-06-22T09:06:50;14.30;;;7.60;;
70337;SDS011;57757;53.198;19.646;2023-06-22T09:09:18;11.50;;;6.40;;
70337;SDS011;57757;53.198;19.646;2023-06-22T09:11:44;15.20;;;7.00;;
70337;SDS011;57757;53.198;19.646;2023-06-22T09:14:11;12.20;;;6.30;;
70337;SDS011;57757;53.198;19.646;2023-06-22T09:16:37;13.10;;;6.50;;
70337;SDS011;57757;53.198;19.646;2023-06-22T09:19:03;14.30;;;6.30;;
70337;SDS011;57757;53.198;19.646;2023-06-22T09:21:29;11.40;;;6.40;;
70337;SDS011;57757;53.198;19.646;2023-06-22T09:23:56;12.00;;;6.30;;
70337;SDS011;57757;53.198;19.646;2023-06-22T09:26:22;12.80;;;5.90;;
70337;SDS011;57757;53.198;19.646;2023-06-22T09:28:49;10.30;;;5.90;;
70337;SDS011;57757;53.198;19.646;2023-06-22T09:31:15;11.30;;;5.90;;
70337;SDS011;57757;53.198;19.646;2023-06-22T09:33:42;11.00;;;5.50;;
70337;SDS011;57757;53.198;19.646;2023-06-22T09:36:09;11.20;;;5.80;;
70337;SDS011;57757;53.198;19.646;2023-06-22T09:38:35;10.90;;;5.60;;
70337;SDS011;57757;53.198;19.646;2023-06-22T09:41:02;10.60;;;5.20;;
70337;SDS011;57757;53.198;19.646;2023-06-22T09:43:28;12.70;;;5.50;;
70337;SDS011;57757;53.198;19.646;2023-06-22T09:45:55;10.60;;;5.40;;
70337;SDS011;57757;53.198;19.646;2023-06-22T09:48:22;12.40;;;5.60;;
70337;SDS011;57757;53.198;19.646;2023-06-22T09:50:48;9.20;;;5.10;;
70337;SDS011;57757;53.198;19.646;2023-06-22T09:53:14;9.60;;;5.30;;
70337;SDS011;57757;53.198;19.646;2023-06-22T09:55:40;9.10;;;5.30;;
70337;SDS011;57757;53.198;19.646;2023-06-22T09:58:06;10.00;;;5.40;;
70337;SDS011;57757;53.198;19.646;2023-06-22T10:00:32;10.10;;;5.00;;
70337;SDS011;57757;53.198;19.646;2023-06-22T10:02:58;11.40;;;5.60;;
70337;SDS011;57757;53.198;19.646;2023-06-22T10:05:27;10.70;;;6.00;;
70337;SDS011;57757;53.198;19.646;2023-06-22T10:07:54;14.10;;;5.30;;
70337;SDS011;57757;53.198;19.646;2023-06-22T10:10:20;11.80;;;6.20;;
70337;SDS011;57757;53.198;19.646;2023-06-22T10:12:47;8.60;;;5.10;;
70337;SDS011;57757;53.198;19.646;2023-06-22T10:15:14;16.00;;;10.50;;
70337;SDS011;57757;53.198;19.646;2023-06-22T10:17:42;12.10;;;6.40;;
70337;SDS011;57757;53.198;19.646;2023-06-22T10:20:08;11.00;;;5.60;;
70337;SDS011;57757;53.198;19.646;2023-06-22T10:22:42;12.30;;;5.40;;
70337;SDS011;57757;53.198;19.646;2023-06-22T10:25:11;8.60;;;5.00;;
70337;SDS011;57757;53.198;19.646;2023-06-22T10:27:38;9.70;;;5.40;;
70337;SDS011;57757;53.198;19.646;2023-06-22T10:30:09;8.00;;;4.10;;
70337;SDS011;57757;53.198;19.646;2023-06-22T10:32:38;9.00;;;4.20;;
70337;SDS011;57757;53.198;19.646;2023-06-22T10:35:05;8.60;;;3.70;;
70337;SDS011;57757;53.198;19.646;2023-06-22T10:37:31;9.10;;;4.00;;
70337;SDS011;57757;53.198;19.646;2023-06-22T10:39:57;9.00;;;4.60;;
70337;SDS011;57757;53.198;19.646;2023-06-22T10:42:24;10.80;;;4.30;;
70337;SDS011;57757;53.198;19.646;2023-06-22T10:44:50;10.90;;;4.90;;
70337;SDS011;57757;53.198;19.646;2023-06-22T10:47:16;8.10;;;4.30;;
70337;SDS011;57757;53.198;19.646;2023-06-22T10:49:42;8.30;;;3.90;;
70337;SDS011;57757;53.198;19.646;2023-06-22T10:52:08;8.00;;;3.70;;
70337;SDS011;57757;53.198;19.646;2023-06-22T10:54:35;7.30;;;3.60;;
70337;SDS011;57757;53.198;19.646;2023-06-22T10:57:02;7.40;;;3.00;;
70337;SDS011;57757;53.198;19.646;2023-06-22T10:59:28;7.70;;;3.30;;
70337;SDS011;57757;53.198;19.646;2023-06-22T11:01:55;9.40;;;3.60;;
70337;SDS011;57757;53.198;19.646;2023-06-22T11:04:22;6.80;;;3.40;;
70337;SDS011;57757;53.198;19.646;2023-06-22T11:06:49;7.80;;;3.90;;
70337;SDS011;57757;53.198;19.646;2023-06-22T11:09:15;9.10;;;4.30;;
70337;SDS011;57757;53.198;19.646;2023-06-22T11:11:53;9.30;;;4.60;;
70337;SDS011;57757;53.198;19.646;2023-06-22T11:14:19;7.70;;;4.20;;
70337;SDS011;57757;53.198;19.646;2023-06-22T11:16:48;8.30;;;4.50;;
70337;SDS011;57757;53.198;19.646;2023-06-22T11:19:14;10.50;;;4.00;;
70337;SDS011;57757;53.198;19.646;2023-06-22T11:21:40;7.20;;;3.70;;
70337;SDS011;57757;53.198;19.646;2023-06-22T11:24:06;8.60;;;3.90;;
70337;SDS011;57757;53.198;19.646;2023-06-22T11:26:33;7.30;;;3.60;;
70337;SDS011;57757;53.198;19.646;2023-06-22T11:28:59;6.70;;;3.60;;
70337;SDS011;57757;53.198;19.646;2023-06-22T11:31:25;8.80;;;4.90;;
70337;SDS011;57757;53.198;19.646;2023-06-22T11:33:52;7.10;;;3.80;;
70337;SDS011;57757;53.198;19.646;2023-06-22T11:36:19;8.10;;;3.70;;
70337;SDS011;57757;53.198;19.646;2023-06-22T11:38:45;9.20;;;3.90;;
70337;SDS011;57757;53.198;19.646;2023-06-22T11:41:11;6.50;;;3.50;;
70337;SDS011;57757;53.198;19.646;2023-06-22T11:43:37;8.70;;;3.60;;
70337;SDS011;57757;53.198;19.646;2023-06-22T11:46:03;6.80;;;3.40;;
70337;SDS011;57757;53.198;19.646;2023-06-22T11:48:30;7.40;;;3.80;;
70337;SDS011;57757;53.198;19.646;2023-06-22T11:50:56;7.60;;;3.80;;
70337;SDS011;57757;53.198;19.646;2023-06-22T11:53:26;8.10;;;4.00;;
70337;SDS011;57757;53.198;19.646;2023-06-22T11:55:52;7.60;;;3.80;;
70337;SDS011;57757;53.198;19.646;2023-06-22T11:58:20;7.70;;;4.10;;
70337;SDS011;57757;53.198;19.646;2023-06-22T12:00:49;7.00;;;4.00;;
70337;SDS011;57757;53.198;19.646;2023-06-22T12:03:18;7.70;;;3.70;;
70337;SDS011;57757;53.198;19.646;2023-06-22T12:05:45;8.10;;;4.20;;
70337;SDS011;57757;53.198;19.646;2023-06-22T12:08:11;7.40;;;3.90;;
70337;SDS011;57757;53.198;19.646;2023-06-22T12:10:37;7.80;;;4.30;;
70337;SDS011;57757;53.198;19.646;2023-06-22T12:13:04;7.50;;;4.20;;
70337;SDS011;57757;53.198;19.646;2023-06-22T12:15:30;9.10;;;4.50;;
70337;SDS011;57757;53.198;19.646;2023-06-22T12:17:56;6.80;;;4.20;;
70337;SDS011;57757;53.198;19.646;2023-06-22T12:20:22;8.40;;;4.10;;
70337;SDS011;57757;53.198;19.646;2023-06-22T12:22:49;7.40;;;3.90;;
70337;SDS011;57757;53.198;19.646;2023-06-22T12:25:17;8.40;;;5.00;;
70337;SDS011;57757;53.198;19.646;2023-06-22T12:27:43;9.10;;;4.60;;
70337;SDS011;57757;53.198;19.646;2023-06-22T12:30:09;11.80;;;4.90;;
70337;SDS011;57757;53.198;19.646;2023-06-22T12:32:35;10.10;;;4.50;;
70337;SDS011;57757;53.198;19.646;2023-06-22T12:35:01;7.00;;;4.30;;
70337;SDS011;57757;53.198;19.646;2023-06-22T12:37:27;9.30;;;5.10;;
70337;SDS011;57757;53.198;19.646;2023-06-22T12:39:54;8.10;;;4.70;;
70337;SDS011;57757;53.198;19.646;2023-06-22T12:42:20;8.10;;;5.00;;
70337;SDS011;57757;53.198;19.646;2023-06-22T12:44:46;7.30;;;4.50;;
70337;SDS011;57757;53.198;19.646;2023-06-22T12:47:12;8.40;;;5.40;;
70337;SDS011;57757;53.198;19.646;2023-06-22T12:49:39;6.80;;;5.00;;
70337;SDS011;57757;53.198;19.646;2023-06-22T12:52:11;7.30;;;5.30;;
70337;SDS011;57757;53.198;19.646;2023-06-22T12:54:37;8.50;;;5.20;;
70337;SDS011;57757;53.198;19.646;2023-06-22T12:57:19;8.10;;;5.70;;
70337;SDS011;57757;53.198;19.646;2023-06-22T12:59:45;8.50;;;5.00;;
70337;SDS011;57757;53.198;19.646;2023-06-22T13:02:11;10.30;;;5.20;;
70337;SDS011;57757;53.198;19.646;2023-06-22T13:04:38;8.80;;;5.50;;
70337;SDS011;57757;53.198;19.646;2023-06-22T13:07:04;7.00;;;5.70;;
70337;SDS011;57757;53.198;19.646;2023-06-22T13:09:44;9.40;;;5.60;;
70337;SDS011;57757;53.198;19.646;2023-06-22T13:12:12;9.20;;;5.70;;
70337;SDS011;57757;53.198;19.646;2023-06-22T13:14:38;7.00;;;5.80;;
70337;SDS011;57757;53.198;19.646;2023-06-22T13:17:04;8.10;;;5.90;;
70337;SDS011;57757;53.198;19.646;2023-06-22T13:19:30;7.40;;;6.40;;
70337;SDS011;57757;53.198;19.646;2023-06-22T13:21:58;8.70;;;6.60;;
70337;SDS011;57757;53.198;19.646;2023-06-22T13:24:25;34.50;;;29.30;;
70337;SDS011;57757;53.198;19.646;2023-06-22T13:26:51;9.40;;;8.50;;
70337;SDS011;57757;53.198;19.646;2023-06-22T13:29:17;8.50;;;5.80;;
70337;SDS011;57757;53.198;19.646;2023-06-22T13:31:43;8.70;;;7.80;;
70337;SDS011;57757;53.198;19.646;2023-06-22T13:34:09;8.30;;;6.90;;
70337;SDS011;57757;53.198;19.646;2023-06-22T13:36:35;10.50;;;7.50;;
70337;SDS011;57757;53.198;19.646;2023-06-22T13:39:01;9.80;;;8.80;;
70337;SDS011;57757;53.198;19.646;2023-06-22T13:41:28;9.20;;;8.30;;
70337;SDS011;57757;53.198;19.646;2023-06-22T13:43:54;8.70;;;7.80;;
70337;SDS011;57757;53.198;19.646;2023-06-22T13:46:20;8.00;;;7.20;;
70337;SDS011;57757;53.198;19.646;2023-06-22T13:48:46;7.50;;;6.60;;
70337;SDS011;57757;53.198;19.646;2023-06-22T13:51:12;9.50;;;8.60;;
70337;SDS011;57757;53.198;19.646;2023-06-22T13:53:38;10.70;;;8.30;;
70337;SDS011;57757;53.198;19.646;2023-06-22T13:56:04;10.10;;;9.20;;
70337;SDS011;57757;53.198;19.646;2023-06-22T13:58:30;12.20;;;10.90;;
70337;SDS011;57757;53.198;19.646;2023-06-22T14:00:56;12.50;;;9.80;;
70337;SDS011;57757;53.198;19.646;2023-06-22T14:03:23;12.70;;;10.40;;
70337;SDS011;57757;53.198;19.646;2023-06-22T14:05:49;12.70;;;10.20;;
70337;SDS011;57757;53.198;19.646;2023-06-22T14:08:15;11.50;;;10.30;;
70337;SDS011;57757;53.198;19.646;2023-06-22T14:11:01;11.80;;;9.80;;
70337;SDS011;57757;53.198;19.646;2023-06-22T14:13:27;20.90;;;14.20;;
70337;SDS011;57757;53.198;19.646;2023-06-22T14:15:53;10.40;;;8.30;;
70337;SDS011;57757;53.198;19.646;2023-06-22T14:18:19;7.80;;;7.00;;
70337;SDS011;57757;53.198;19.646;2023-06-22T14:20:48;8.80;;;7.90;;
70337;SDS011;57757;53.198;19.646;2023-06-22T14:23:14;8.60;;;7.70;;
70337;SDS011;57757;53.198;19.646;2023-06-22T14:25:41;7.90;;;6.60;;
70337;SDS011;57757;53.198;19.646;2023-06-22T14:28:07;10.80;;;7.60;;